sensor_id;sensor_type;location;lat;lon;timestamp;pressure;altitude;pressure_sealevel;temperature;humidity
74578;BME280;63173;49.086;33.418;2023-04-01T00:01:12;99596.59;;;6.25;100.00
74578;BME280;63173;49.086;33.418;2023-04-01T00:03:39;99590.69;;;6.18;100.00
74578;BME280;63173;49.086;33.418;2023-04-01T00:06:05;99598.78;;;6.18;100.00
74578;BME280;63173;49.086;33.418;2023-04-01T00:08:31;99602.56;;;6.22;100.00
74578;BME280;63173;49.086;33.418;2023-04-01T00:10:57;99594.72;;;6.26;100.00
74578;BME280;63173;49.086;33.418;2023-04-01T00:13:23;99589.84;;;6.33;100.00
74578;BME280;63173;49.086;33.418;2023-04-01T00:15:48;99596.03;;;6.28;100.00
74578;BME280;63173;49.086;33.418;2023-04-01T00:18:14;99595.00;;;6.19;100.00
74578;BME280;63173;49.086;33.418;2023-04-01T00:20:44;99598.47;;;6.25;100.00
74578;BME280;63173;49.086;33.418;2023-04-01T00:23:09;99588.00;;;6.13;100.00
74578;BME280;63173;49.086;33.418;2023-04-01T00:25:35;99588.56;;;6.10;100.00
74578;BME280;63173;49.086;33.418;2023-04-01T00:28:01;99589.06;;;6.17;100.00
74578;BME280;63173;49.086;33.418;2023-04-01T00:30:26;99583.69;;;6.17;100.00
74578;BME280;63173;49.086;33.418;2023-04-01T00:32:52;99580.16;;;6.22;100.00
74578;BME280;63173;49.086;33.418;2023-04-01T00:35:18;99590.41;;;6.20;100.00
74578;BME280;63173;49.086;33.418;2023-04-01T00:37:44;99585.22;;;6.38;100.00
74578;BME280;63173;49.086;33.418;2023-04-01T00:40:23;99581.53;;;6.19;100.00
74578;BME280;63173;49.086;33.418;2023-04-01T00:42:49;99586.38;;;6.22;100.00
74578;BME280;63173;49.086;33.418;2023-04-01T00:47:50;99594.47;;;6.17;100.00
74578;BME280;63173;49.086;33.418;2023-04-01T00:50:16;99590.69;;;6.18;100.00
74578;BME280;63173;49.086;33.418;2023-04-01T00:52:41;99599.59;;;6.19;100.00
74578;BME280;63173;49.086;33.418;2023-04-01T00:55:10;99586.84;;;6.39;100.00
74578;BME280;63173;49.086;33.418;2023-04-01T00:57:39;99591.53;;;6.19;100.00
74578;BME280;63173;49.086;33.418;2023-04-01T01:00:09;99589.84;;;6.28;100.00
74578;BME280;63173;49.086;33.418;2023-04-01T01:02:36;99590.13;;;6.31;100.00
74578;BME280;63173;49.086;33.418;2023-04-01T01:05:02;99590.41;;;6.25;100.00
74578;BME280;63173;49.086;33.418;2023-04-01T01:08:00;99593.13;;;6.20;100.00
74578;BME280;63173;49.086;33.418;2023-04-01T01:10:31;99593.09;;;6.30;100.00
74578;BME280;63173;49.086;33.418;2023-04-01T01:13:22;99592.25;;;6.34;100.00
74578;BME280;63173;49.086;33.418;2023-04-01T01:16:03;99585.25;;;6.28;100.00
74578;BME280;63173;49.086;33.418;2023-04-01T01:32:07;99597.69;;;6.24;100.00
74578;BME280;63173;49.086;33.418;2023-04-01T01:37:05;99595.78;;;6.25;100.00
74578;BME280;63173;49.086;33.418;2023-04-01T01:39:33;99597.69;;;6.19;100.00
74578;BME280;63173;49.086;33.418;2023-04-01T01:42:04;99592.84;;;6.21;100.00
74578;BME280;63173;49.086;33.418;2023-04-01T01:44:32;99596.09;;;6.18;100.00
74578;BME280;63173;49.086;33.418;2023-04-01T01:47:00;99596.34;;;6.22;100.00
74578;BME280;63173;49.086;33.418;2023-04-01T01:49:27;99593.88;;;6.30;100.00
74578;BME280;63173;49.086;33.418;2023-04-01T01:51:56;99592.59;;;6.13;100.00
74578;BME280;63173;49.086;33.418;2023-04-01T01:54:21;99590.97;;;6.17;100.00
74578;BME280;63173;49.086;33.418;2023-04-01T01:56:49;99590.69;;;6.18;100.00
74578;BME280;63173;49.086;33.418;2023-04-01T01:59:17;99586.13;;;6.14;100.00
74578;BME280;63173;49.086;33.418;2023-04-01T02:01:49;99586.69;;;6.11;100.00
74578;BME280;63173;49.086;33.418;2023-04-01T02:04:18;99593.94;;;6.15;100.00
74578;BME280;63173;49.086;33.418;2023-04-01T02:06:54;99596.63;;;6.20;100.00
74578;BME280;63173;49.086;33.418;2023-04-01T02:09:21;99595.28;;;6.18;100.00
74578;BME280;63173;49.086;33.418;2023-04-01T02:11:59;99596.59;;;6.25;100.00
74578;BME280;63173;49.086;33.418;2023-04-01T02:17:22;99600.91;;;6.31;100.00
74578;BME280;63173;49.086;33.418;2023-04-01T02:22:17;99596.84;;;6.29;100.00
74578;BME280;63173;49.086;33.418;2023-04-01T02:24:44;99597.69;;;6.24;100.00
74578;BME280;63173;49.086;33.418;2023-04-01T02:27:11;99591.72;;;6.32;100.00
74578;BME280;63173;49.086;33.418;2023-04-01T02:29:36;99586.06;;;6.34;100.00
74578;BME280;63173;49.086;33.418;2023-04-01T02:32:02;99594.69;;;6.31;100.00
74578;BME280;63173;49.086;33.418;2023-04-01T02:34:28;99593.63;;;6.32;100.00
74578;BME280;63173;49.086;33.418;2023-04-01T02:36:55;99586.63;;;6.26;100.00
74578;BME280;63173;49.086;33.418;2023-04-01T02:39:21;99598.75;;;6.23;100.00
74578;BME280;63173;49.086;33.418;2023-04-01T02:41:47;99587.41;;;6.31;100.00
74578;BME280;63173;49.086;33.418;2023-04-01T02:44:13;99583.63;;;6.37;100.00
74578;BME280;63173;49.086;33.418;2023-04-01T02:46:39;99600.41;;;6.24;100.00
74578;BME280;63173;49.086;33.418;2023-04-01T02:49:05;99592.84;;;6.26;100.00
74578;BME280;63173;49.086;33.418;2023-04-01T02:51:32;99592.78;;;6.36;100.00
74578;BME280;63173;49.086;33.418;2023-04-01T02:53:57;99597.66;;;6.29;100.00
74578;BME280;63173;49.086;33.418;2023-04-01T02:56:23;99596.28;;;6.37;100.00
74578;BME280;63173;49.086;33.418;2023-04-01T02:58:48;99600.09;;;6.31;100.00
74578;BME280;63173;49.086;33.418;2023-04-01T03:01:14;99594.41;;;6.37;100.00
74578;BME280;63173;49.086;33.418;2023-04-01T03:03:40;99594.16;;;6.29;100.00
74578;BME280;63173;49.086;33.418;2023-04-01T03:06:10;99598.13;;;6.46;100.00
74578;BME280;63173;49.086;33.418;2023-04-01T03:08:36;99602.44;;;6.52;100.00
74578;BME280;63173;49.086;33.418;2023-04-01T03:11:01;99599.53;;;6.39;100.00
74578;BME280;63173;49.086;33.418;2023-04-01T03:13:27;99599.28;;;6.35;100.00
74578;BME280;63173;49.086;33.418;2023-04-01T03:15:53;99603.56;;;6.36;100.00
74578;BME280;63173;49.086;33.418;2023-04-01T03:18:18;99608.94;;;6.46;100.00
74578;BME280;63173;49.086;33.418;2023-04-01T03:20:44;99606.72;;;6.58;100.00
74578;BME280;63173;49.086;33.418;2023-04-01T03:23:09;99611.91;;;6.45;100.00
74578;BME280;63173;49.086;33.418;2023-04-01T03:25:35;99613.00;;;6.39;100.00
74578;BME280;63173;49.086;33.418;2023-04-01T03:28:01;99607.66;;;6.29;100.00
74578;BME280;63173;49.086;33.418;2023-04-01T03:30:27;99617.84;;;6.47;100.00
74578;BME280;63173;49.086;33.418;2023-04-01T03:32:55;99611.03;;;6.59;100.00
74578;BME280;63173;49.086;33.418;2023-04-01T03:35:20;99618.41;;;6.39;100.00
74578;BME280;63173;49.086;33.418;2023-04-01T03:37:45;99621.84;;;6.54;100.00
74578;BME280;63173;49.086;33.418;2023-04-01T03:40:11;99617.53;;;6.58;100.00
74578;BME280;63173;49.086;33.418;2023-04-01T03:42:36;99621.88;;;6.44;100.00
74578;BME280;63173;49.086;33.418;2023-04-01T03:45:03;99618.09;;;6.45;100.00
74578;BME280;63173;49.086;33.418;2023-04-01T03:47:29;99625.38;;;6.50;100.00
74578;BME280;63173;49.086;33.418;2023-04-01T03:49:54;99616.72;;;6.53;100.00
74578;BME280;63173;49.086;33.418;2023-04-01T03:52:20;99614.31;;;6.46;100.00
74578;BME280;63173;49.086;33.418;2023-04-01T03:54:46;99624.53;;;6.59;100.00
74578;BME280;63173;49.086;33.418;2023-04-01T03:57:11;99623.41;;;6.65;100.00
74578;BME280;63173;49.086;33.418;2023-04-01T03:59:36;99623.47;;;6.55;100.00
74578;BME280;63173;49.086;33.418;2023-04-01T04:02:02;99629.34;;;6.62;100.00
74578;BME280;63173;49.086;33.418;2023-04-01T04:04:28;99632.53;;;6.75;100.00
74578;BME280;63173;49.086;33.418;2023-04-01T04:06:54;99639.03;;;6.68;100.00
74578;BME280;63173;49.086;33.418;2023-04-01T04:09:19;99631.47;;;6.71;100.00
74578;BME280;63173;49.086;33.418;2023-04-01T04:11:45;99631.16;;;6.82;100.00
74578;BME280;63173;49.086;33.418;2023-04-01T04:14:11;99641.53;;;6.60;100.00
74578;BME280;63173;49.086;33.418;2023-04-01T04:16:36;99651.22;;;6.66;100.00
74578;BME280;63173;49.086;33.418;2023-04-01T04:19:03;99649.84;;;6.74;100.00
74578;BME280;63173;49.086;33.418;2023-04-01T04:21:28;99634.19;;;6.76;100.00
74578;BME280;63173;49.086;33.418;2023-04-01T04:23:54;99644.47;;;6.63;100.00
74578;BME280;63173;49.086;33.418;2023-04-01T04:26:19;99649.84;;;6.74;100.00
74578;BME280;63173;49.086;33.418;2023-04-01T04:28:45;99650.63;;;6.74;100.00
74578;BME280;63173;49.086;33.418;2023-04-01T04:31:10;99649.22;;;6.87;100.00
74578;BME280;63173;49.086;33.418;2023-04-01T04:33:36;99653.00;;;6.86;100.00
74578;BME280;63173;49.086;33.418;2023-04-01T04:36:02;99648.16;;;6.78;100.00
74578;BME280;63173;49.086;33.418;2023-04-01T04:38:28;99657.31;;;6.87;100.00
74578;BME280;63173;49.086;33.418;2023-04-01T04:40:54;99660.22;;;6.95;100.00
74578;BME280;63173;49.086;33.418;2023-04-01T04:43:20;99656.19;;;6.98;100.00
74578;BME280;63173;49.086;33.418;2023-04-01T04:45:46;99662.19;;;6.85;100.00
74578;BME280;63173;49.086;33.418;2023-04-01T04:48:13;99669.19;;;6.91;100.00
74578;BME280;63173;49.086;33.418;2023-04-01T04:50:44;99665.91;;;6.94;100.00
74578;BME280;63173;49.086;33.418;2023-04-01T04:53:13;99664.72;;;7.10;100.00
74578;BME280;63173;49.086;33.418;2023-04-01T04:55:43;99659.41;;;7.00;100.00
74578;BME280;63173;49.086;33.418;2023-04-01T04:58:09;99663.88;;;7.19;100.00
74578;BME280;63173;49.086;33.418;2023-04-01T05:00:35;99667.06;;;6.83;100.00
74578;BME280;63173;49.086;33.418;2023-04-01T05:03:00;99672.91;;;7.00;100.00
74578;BME280;63173;49.086;33.418;2023-04-01T05:05:25;99674.50;;;7.01;100.00
74578;BME280;63173;49.086;33.418;2023-04-01T05:07:51;99673.78;;;6.90;100.00
74578;BME280;63173;49.086;33.418;2023-04-01T05:10:16;99675.81;;;7.08;100.00
74578;BME280;63173;49.086;33.418;2023-04-01T05:12:42;99679.88;;;7.11;100.00
74578;BME280;63173;49.086;33.418;2023-04-01T05:15:08;99687.38;;;7.19;100.00
74578;BME280;63173;49.086;33.418;2023-04-01T05:17:33;99684.78;;;7.04;100.00
74578;BME280;63173;49.086;33.418;2023-04-01T05:19:59;99689.06;;;7.05;100.00
74578;BME280;63173;49.086;33.418;2023-04-01T05:22:25;99688.19;;;7.19;100.00
74578;BME280;63173;49.086;33.418;2023-04-01T05:24:50;99689.22;;;7.28;100.00
74578;BME280;63173;49.086;33.418;2023-04-01T05:27:16;99684.59;;;7.34;100.00
74578;BME280;63173;49.086;33.418;2023-04-01T05:29:42;99682.34;;;7.46;100.00
74578;BME280;63173;49.086;33.418;2023-04-01T05:32:07;99679.22;;;7.29;100.00
74578;BME280;63173;49.086;33.418;2023-04-01T05:34:33;99680.75;;;7.45;100.00
74578;BME280;63173;49.086;33.418;2023-04-01T05:36:58;99686.91;;;7.50;99.47
74578;BME280;63173;49.086;33.418;2023-04-01T05:39:23;99692.44;;;7.69;98.67
74578;BME280;63173;49.086;33.418;2023-04-01T05:41:49;99691.59;;;7.40;98.64
74578;BME280;63173;49.086;33.418;2023-04-01T05:44:14;99695.06;;;7.45;98.95
74578;BME280;63173;49.086;33.418;2023-04-01T05:46:40;99695.44;;;7.68;98.97
74578;BME280;63173;49.086;33.418;2023-04-01T05:49:06;99707.19;;;7.82;97.54
74578;BME280;63173;49.086;33.418;2023-04-01T05:51:31;99697.31;;;7.72;97.27
74578;BME280;63173;49.086;33.418;2023-04-01T05:53:58;99688.78;;;7.84;97.84
74578;BME280;63173;49.086;33.418;2023-04-01T05:56:23;99699.59;;;7.55;98.46
74578;BME280;63173;49.086;33.418;2023-04-01T05:58:51;99694.41;;;7.92;97.10
74578;BME280;63173;49.086;33.418;2023-04-01T06:01:17;99682.94;;;8.05;96.10
74578;BME280;63173;49.086;33.418;2023-04-01T06:03:43;99689.53;;;7.94;96.30
74578;BME280;63173;49.086;33.418;2023-04-01T06:06:13;99684.44;;;7.88;97.84
74578;BME280;63173;49.086;33.418;2023-04-01T06:08:41;99684.28;;;8.08;96.00
74578;BME280;63173;49.086;33.418;2023-04-01T06:14:12;99697.91;;;8.26;95.88
74578;BME280;63173;49.086;33.418;2023-04-01T06:17:17;99702.16;;;8.04;96.96
74578;BME280;63173;49.086;33.418;2023-04-01T06:23:00;99713.97;;;8.13;95.53
74578;BME280;63173;49.086;33.418;2023-04-01T06:47:04;99710.88;;;8.29;94.73
74578;BME280;63173;49.086;33.418;2023-04-01T06:52:19;99712.34;;;8.45;95.49
74578;BME280;63173;49.086;33.418;2023-04-01T06:55:02;99716.34;;;8.48;93.91
74578;BME280;63173;49.086;33.418;2023-04-01T06:57:43;99718.22;;;8.52;93.28
74578;BME280;63173;49.086;33.418;2023-04-01T07:00:19;99715.44;;;8.57;94.48
74578;BME280;63173;49.086;33.418;2023-04-01T07:02:53;99726.50;;;8.61;93.73
74578;BME280;63173;49.086;33.418;2023-04-01T07:05:20;99722.63;;;8.67;93.60
74578;BME280;63173;49.086;33.418;2023-04-01T07:07:53;99720.94;;;8.76;92.22
74578;BME280;63173;49.086;33.418;2023-04-01T07:13:21;99727.69;;;8.97;90.79
74578;BME280;63173;49.086;33.418;2023-04-01T07:16:35;99721.94;;;9.04;91.27
74578;BME280;63173;49.086;33.418;2023-04-01T07:19:28;99715.19;;;9.01;89.82
74578;BME280;63173;49.086;33.418;2023-04-01T07:21:57;99713.91;;;9.17;88.88
74578;BME280;63173;49.086;33.418;2023-04-01T07:24:27;99714.06;;;9.26;89.55
74578;BME280;63173;49.086;33.418;2023-04-01T07:26:56;99718.16;;;9.23;89.88
74578;BME280;63173;49.086;33.418;2023-04-01T07:29:22;99712.13;;;9.08;89.36
74578;BME280;63173;49.086;33.418;2023-04-01T07:34:50;99723.84;;;9.03;90.44
74578;BME280;63173;49.086;33.418;2023-04-01T07:37:26;99721.66;;;9.24;89.53
74578;BME280;63173;49.086;33.418;2023-04-01T07:48:09;99725.63;;;9.31;89.93
74578;BME280;63173;49.086;33.418;2023-04-01T07:50:46;99718.47;;;9.40;88.73
74578;BME280;63173;49.086;33.418;2023-04-01T07:56:08;99726.69;;;9.86;87.28
74578;BME280;63173;49.086;33.418;2023-04-01T07:58:45;99726.66;;;9.54;87.91
74578;BME280;63173;49.086;33.418;2023-04-01T08:01:26;99729.88;;;9.75;86.60
74578;BME280;63173;49.086;33.418;2023-04-01T08:04:15;99741.31;;;9.72;88.09
74578;BME280;63173;49.086;33.418;2023-04-01T08:09:38;99747.34;;;9.69;87.57
74578;BME280;63173;49.086;33.418;2023-04-01T08:22:58;99752.59;;;9.60;87.26
74578;BME280;63173;49.086;33.418;2023-04-01T08:25:28;99759.63;;;9.42;86.63
74578;BME280;63173;49.086;33.418;2023-04-01T08:28:20;99754.97;;;9.48;86.55
74578;BME280;63173;49.086;33.418;2023-04-01T08:30:53;99758.75;;;9.66;86.58
74578;BME280;63173;49.086;33.418;2023-04-01T08:33:28;99761.41;;;9.71;85.55
74578;BME280;63173;49.086;33.418;2023-04-01T08:36:12;99762.72;;;9.73;83.89
74578;BME280;63173;49.086;33.418;2023-04-01T08:38:48;99760.22;;;9.77;84.74
74578;BME280;63173;49.086;33.418;2023-04-01T08:50:36;99757.75;;;10.31;81.01
74578;BME280;63173;49.086;33.418;2023-04-01T08:56:23;99761.38;;;10.40;82.82
74578;BME280;63173;49.086;33.418;2023-04-01T08:59:53;99758.72;;;10.21;83.17
74578;BME280;63173;49.086;33.418;2023-04-01T09:08:24;99756.78;;;10.40;81.27
74578;BME280;63173;49.086;33.418;2023-04-01T09:13:58;99750.97;;;10.61;81.07
74578;BME280;63173;49.086;33.418;2023-04-01T09:19:42;99748.56;;;10.73;81.99
74578;BME280;63173;49.086;33.418;2023-04-01T09:27:29;99744.84;;;11.09;78.97
74578;BME280;63173;49.086;33.418;2023-04-01T09:38:23;99726.63;;;11.23;78.08
74578;BME280;63173;49.086;33.418;2023-04-01T09:46:34;99718.81;;;12.02;73.88
74578;BME280;63173;49.086;33.418;2023-04-01T09:49:42;99715.06;;;11.89;73.88
74578;BME280;63173;49.086;33.418;2023-04-01T10:27:55;99705.94;;;13.25;68.27
74578;BME280;63173;49.086;33.418;2023-04-01T10:36:32;99711.53;;;13.20;67.33
74578;BME280;63173;49.086;33.418;2023-04-01T10:50:25;99698.97;;;12.63;69.50
74578;BME280;63173;49.086;33.418;2023-04-01T11:07:21;99694.03;;;12.65;70.50
74578;BME280;63173;49.086;33.418;2023-04-01T11:24:08;99688.44;;;13.17;68.49
74578;BME280;63173;49.086;33.418;2023-04-01T11:40:52;99681.00;;;12.92;67.89
74578;BME280;63173;49.086;33.418;2023-04-01T11:43:53;99682.19;;;13.17;66.57
74578;BME280;63173;49.086;33.418;2023-04-01T11:52:30;99677.22;;;13.19;66.09
74578;BME280;63173;49.086;33.418;2023-04-01T11:55:22;99676.41;;;13.18;66.67
74578;BME280;63173;49.086;33.418;2023-04-01T11:58:01;99671.59;;;13.84;64.50
74578;BME280;63173;49.086;33.418;2023-04-01T12:14:39;99682.28;;;12.56;69.32
74578;BME280;63173;49.086;33.418;2023-04-01T12:20:02;99681.38;;;12.29;70.71
74578;BME280;63173;49.086;33.418;2023-04-01T12:33:45;99669.47;;;12.56;68.24
74578;BME280;63173;49.086;33.418;2023-04-01T12:50:31;99674.78;;;12.00;76.50
74578;BME280;63173;49.086;33.418;2023-04-01T12:55:38;99676.53;;;11.96;78.09
74578;BME280;63173;49.086;33.418;2023-04-01T13:09:13;99685.91;;;11.68;79.28
74578;BME280;63173;49.086;33.418;2023-04-01T13:17:36;99693.41;;;11.84;79.54
74578;BME280;63173;49.086;33.418;2023-04-01T13:26:29;99701.28;;;11.50;80.30
74578;BME280;63173;49.086;33.418;2023-04-01T13:29:21;99702.22;;;11.32;82.01
74578;BME280;63173;49.086;33.418;2023-04-01T13:32:13;99693.16;;;11.72;81.10
74578;BME280;63173;49.086;33.418;2023-04-01T13:35:08;99703.50;;;11.48;80.39
74578;BME280;63173;49.086;33.418;2023-04-01T13:43:31;99698.25;;;11.65;80.71
74578;BME280;63173;49.086;33.418;2023-04-01T13:49:05;99697.09;;;11.66;79.42
74578;BME280;63173;49.086;33.418;2023-04-01T13:59:22;99690.59;;;11.54;79.08
74578;BME280;63173;49.086;33.418;2023-04-01T14:05:47;99674.47;;;11.79;81.21
74578;BME280;63173;49.086;33.418;2023-04-01T14:08:42;99672.75;;;11.83;78.97
74578;BME280;63173;49.086;33.418;2023-04-01T14:11:18;99679.22;;;11.52;80.11
74578;BME280;63173;49.086;33.418;2023-04-01T14:25:17;99698.88;;;10.86;84.04
74578;BME280;63173;49.086;33.418;2023-04-01T14:33:34;99692.59;;;11.12;84.40
74578;BME280;63173;49.086;33.418;2023-04-01T14:50:18;99684.66;;;11.16;85.90
74578;BME280;63173;49.086;33.418;2023-04-01T14:55:44;99690.91;;;11.16;85.38
74578;BME280;63173;49.086;33.418;2023-04-01T14:58:13;99689.91;;;10.85;86.82
74578;BME280;63173;49.086;33.418;2023-04-01T15:06:19;99685.47;;;10.62;88.51
74578;BME280;63173;49.086;33.418;2023-04-01T15:09:00;99701.38;;;10.69;88.31
74578;BME280;63173;49.086;33.418;2023-04-01T15:14:24;99693.91;;;10.33;89.93
74578;BME280;63173;49.086;33.418;2023-04-01T15:22:05;99713.63;;;10.25;90.25
74578;BME280;63173;49.086;33.418;2023-04-01T15:28:11;99712.31;;;10.04;92.31
74578;BME280;63173;49.086;33.418;2023-04-01T15:38:56;99714.41;;;10.07;93.64
74578;BME280;63173;49.086;33.418;2023-04-01T15:46:51;99717.53;;;10.01;91.10
74578;BME280;63173;49.086;33.418;2023-04-01T15:49:40;99719.81;;;10.12;91.26
74578;BME280;63173;49.086;33.418;2023-04-01T16:02:53;99724.56;;;10.02;92.83
74578;BME280;63173;49.086;33.418;2023-04-01T16:17:11;99719.81;;;10.12;94.66
74578;BME280;63173;49.086;33.418;2023-04-01T16:22:38;99715.06;;;9.67;95.18
74578;BME280;63173;49.086;33.418;2023-04-01T16:27:53;99720.66;;;9.76;97.40
74578;BME280;63173;49.086;33.418;2023-04-01T16:30:34;99725.19;;;9.80;95.51
74578;BME280;63173;49.086;33.418;2023-04-01T16:33:24;99736.59;;;9.96;96.33
74578;BME280;63173;49.086;33.418;2023-04-01T16:41:41;99738.06;;;9.88;95.77
74578;BME280;63173;49.086;33.418;2023-04-01T16:44:26;99730.31;;;9.82;95.09
74578;BME280;63173;49.086;33.418;2023-04-01T16:49:24;99729.81;;;9.80;95.29
74578;BME280;63173;49.086;33.418;2023-04-01T16:52:04;99732.50;;;9.98;94.33
74578;BME280;63173;49.086;33.418;2023-04-01T16:54:58;99732.81;;;9.78;95.44
74578;BME280;63173;49.086;33.418;2023-04-01T16:58:03;99740.00;;;9.69;96.53
74578;BME280;63173;49.086;33.418;2023-04-01T17:00:27;99750.78;;;9.74;96.62
74578;BME280;63173;49.086;33.418;2023-04-01T17:03:03;99737.94;;;9.80;96.27
74578;BME280;63173;49.086;33.418;2023-04-01T17:08:15;99721.84;;;9.51;95.64
74578;BME280;63173;49.086;33.418;2023-04-01T17:19:19;99712.34;;;9.67;96.33
74578;BME280;63173;49.086;33.418;2023-04-01T17:21:54;99726.38;;;9.56;94.24
74578;BME280;63173;49.086;33.418;2023-04-01T17:27:18;99729.28;;;9.78;93.42
74578;BME280;63173;49.086;33.418;2023-04-01T17:35:59;99738.19;;;9.65;92.96
74578;BME280;63173;49.086;33.418;2023-04-01T17:38:57;99746.00;;;9.66;91.67
74578;BME280;63173;49.086;33.418;2023-04-01T18:09:11;99749.75;;;9.52;91.15
74578;BME280;63173;49.086;33.418;2023-04-01T18:17:27;99748.56;;;9.39;91.44
74578;BME280;63173;49.086;33.418;2023-04-01T18:20:20;99751.56;;;9.37;92.12
74578;BME280;63173;49.086;33.418;2023-04-01T18:25:39;99745.28;;;9.42;91.36
74578;BME280;63173;49.086;33.418;2023-04-01T18:30:40;99747.09;;;9.28;92.08
74578;BME280;63173;49.086;33.418;2023-04-01T18:36:18;99731.84;;;9.32;91.99
74578;BME280;63173;49.086;33.418;2023-04-01T18:39:00;99735.69;;;9.31;92.52
74578;BME280;63173;49.086;33.418;2023-04-01T18:41:35;99740.38;;;9.44;91.86
74578;BME280;63173;49.086;33.418;2023-04-01T18:50:32;99736.31;;;9.23;90.69
74578;BME280;63173;49.086;33.418;2023-04-01T18:55:57;99744.47;;;9.41;91.08
74578;BME280;63173;49.086;33.418;2023-04-01T18:58:54;99736.25;;;9.28;90.00
74578;BME280;63173;49.086;33.418;2023-04-01T19:06:58;99728.63;;;9.30;90.14
74578;BME280;63173;49.086;33.418;2023-04-01T19:09:43;99727.75;;;9.16;89.34
74578;BME280;63173;49.086;33.418;2023-04-01T19:25:34;99730.13;;;8.99;90.50
74578;BME280;63173;49.086;33.418;2023-04-01T19:30:51;99734.34;;;9.10;90.60
74578;BME280;63173;49.086;33.418;2023-04-01T19:33:41;99728.41;;;9.08;91.10
74578;BME280;63173;49.086;33.418;2023-04-01T19:39:06;99738.31;;;8.94;91.06
74578;BME280;63173;49.086;33.418;2023-04-01T19:47:44;99746.38;;;8.75;92.42
74578;BME280;63173;49.086;33.418;2023-04-01T19:52:58;99740.91;;;8.80;90.67
74578;BME280;63173;49.086;33.418;2023-04-01T19:55:39;99746.84;;;8.82;92.65
74578;BME280;63173;49.086;33.418;2023-04-01T20:00:58;99748.16;;;8.85;90.32
74578;BME280;63173;49.086;33.418;2023-04-01T20:09:38;99746.38;;;8.75;90.71
74578;BME280;63173;49.086;33.418;2023-04-01T20:14:54;99740.16;;;8.98;90.99
74578;BME280;63173;49.086;33.418;2023-04-01T20:17:24;99734.81;;;8.70;90.23
74578;BME280;63173;49.086;33.418;2023-04-01T20:25:24;99749.28;;;8.84;90.58
74578;BME280;63173;49.086;33.418;2023-04-01T20:27:55;99756.78;;;8.63;90.27
74578;BME280;63173;49.086;33.418;2023-04-01T20:44:51;99745.63;;;8.70;90.38
74578;BME280;63173;49.086;33.418;2023-04-01T21:01:39;99737.31;;;8.61;90.72
74578;BME280;63173;49.086;33.418;2023-04-01T21:04:37;99733.69;;;8.47;90.69
74578;BME280;63173;49.086;33.418;2023-04-01T21:07:21;99726.16;;;8.44;91.81
74578;BME280;63173;49.086;33.418;2023-04-01T21:12:47;99724.31;;;8.39;91.53
74578;BME280;63173;49.086;33.418;2023-04-01T21:15:50;99720.53;;;8.35;90.97
74578;BME280;63173;49.086;33.418;2023-04-01T21:19:08;99723.50;;;8.39;90.47
74578;BME280;63173;49.086;33.418;2023-04-01T21:24:30;99723.06;;;8.22;92.09
74578;BME280;63173;49.086;33.418;2023-04-01T21:29:59;99713.03;;;8.27;90.88
74578;BME280;63173;49.086;33.418;2023-04-01T21:37:42;99730.69;;;8.25;91.50
74578;BME280;63173;49.086;33.418;2023-04-01T21:46:21;99733.38;;;8.20;91.53
74578;BME280;63173;49.086;33.418;2023-04-01T22:11:01;99712.47;;;7.97;91.38
74578;BME280;63173;49.086;33.418;2023-04-01T22:13:38;99729.09;;;8.14;90.63
74578;BME280;63173;49.086;33.418;2023-04-01T22:16:27;99722.66;;;8.10;90.50
74578;BME280;63173;49.086;33.418;2023-04-01T22:19:36;99720.81;;;8.05;91.84
74578;BME280;63173;49.086;33.418;2023-04-01T22:22:21;99722.91;;;8.13;90.79
74578;BME280;63173;49.086;33.418;2023-04-01T22:24:59;99722.31;;;8.16;91.20
74578;BME280;63173;49.086;33.418;2023-04-01T22:27:44;99718.16;;;8.00;91.75
74578;BME280;63173;49.086;33.418;2023-04-01T22:32:52;99711.78;;;8.15;91.26
74578;BME280;63173;49.086;33.418;2023-04-01T22:37:53;99707.94;;;7.92;91.28
74578;BME280;63173;49.086;33.418;2023-04-01T22:43:11;99703.41;;;7.83;91.84
74578;BME280;63173;49.086;33.418;2023-04-01T22:45:59;99711.59;;;7.78;91.85
74578;BME280;63173;49.086;33.418;2023-04-01T22:48:45;99724.53;;;7.81;92.45
74578;BME280;63173;49.086;33.418;2023-04-01T22:54:19;99710.81;;;7.72;91.34
74578;BME280;63173;49.086;33.418;2023-04-01T22:57:05;99719.41;;;7.74;91.21
74578;BME280;63173;49.086;33.418;2023-04-01T22:59:52;99716.94;;;7.83;90.82
74578;BME280;63173;49.086;33.418;2023-04-01T23:02:27;99716.72;;;7.74;90.77
74578;BME280;63173;49.086;33.418;2023-04-01T23:04:59;99714.91;;;7.64;91.33
74578;BME280;63173;49.086;33.418;2023-04-01T23:07:41;99707.31;;;7.67;91.08
74578;BME280;63173;49.086;33.418;2023-04-01T23:10:24;99703.88;;;7.56;91.67
74578;BME280;63173;49.086;33.418;2023-04-01T23:12:52;99704.34;;;7.68;91.35
74578;BME280;63173;49.086;33.418;2023-04-01T23:15:20;99706.59;;;7.56;91.55
74578;BME280;63173;49.086;33.418;2023-04-01T23:17:50;99696.06;;;7.54;91.87
74578;BME280;63173;49.086;33.418;2023-04-01T23:31:02;99705.28;;;7.48;91.63
74578;BME280;63173;49.086;33.418;2023-04-01T23:33:29;99706.41;;;7.47;92.11
74578;BME280;63173;49.086;33.418;2023-04-01T23:36:15;99709.59;;;7.49;91.97
74578;BME280;63173;49.086;33.418;2023-04-01T23:38:42;99704.13;;;7.59;91.97
74578;BME280;63173;49.086;33.418;2023-04-01T23:41:20;99707.75;;;7.45;91.67
74578;BME280;63173;49.086;33.418;2023-04-01T23:43:56;99705.00;;;7.55;91.38
74578;BME280;63173;49.086;33.418;2023-04-01T23:46:24;99702.44;;;7.30;92.36
74578;BME280;63173;49.086;33.418;2023-04-01T23:48:50;99709.41;;;7.41;91.77
74578;BME280;63173;49.086;33.418;2023-04-01T23:51:25;99702.97;;;7.32;91.97
74578;BME280;63173;49.086;33.418;2023-04-01T23:56:51;99705.75;;;7.60;91.04
74578;BME280;63173;49.086;33.418;2023-04-01T23:59:29;99701.88;;;7.38;91.40
